createdAt,value
2023-03-26T00:01:54.943Z,101477.33
2023-03-26T00:04:23.223Z,101479.30
2023-03-26T00:06:51.628Z,101479.66
2023-03-26T00:09:20.186Z,101476.96
2023-03-26T00:11:48.338Z,101473.04
2023-03-26T00:14:16.480Z,101466.58
2023-03-26T00:16:45.462Z,101462.11
2023-03-26T00:19:14.219Z,101457.46
2023-03-26T00:21:42.374Z,101455.48
2023-03-26T00:24:13.220Z,101457.45
2023-03-26T00:26:41.592Z,101458.50
2023-03-26T00:29:09.743Z,101454.55
2023-03-26T00:31:38.149Z,101452.73
2023-03-26T00:34:06.885Z,101445.75
2023-03-26T00:36:35.029Z,101449.66
2023-03-26T00:39:05.444Z,101447.27
2023-03-26T00:41:34.347Z,101442.05
2023-03-26T00:44:03.127Z,101436.33
2023-03-26T00:46:32.360Z,101433.98
2023-03-26T00:49:01.408Z,101426.77
2023-03-26T00:51:30.063Z,101423.84
2023-03-26T00:53:58.529Z,101420.90
2023-03-26T00:56:27.066Z,101421.38
2023-03-26T00:58:55.160Z,101424.71
2023-03-26T01:01:27.084Z,101418.29
2023-03-26T01:04:07.590Z,101415.08
2023-03-26T01:06:40.017Z,101417.19
2023-03-26T01:09:18.096Z,101408.80
2023-03-26T01:11:47.861Z,101410.76
2023-03-26T01:14:17.886Z,101415.91
2023-03-26T01:16:53.205Z,101411.06
2023-03-26T01:19:40.301Z,101404.41
2023-03-26T01:22:10.650Z,101395.30
2023-03-26T01:24:40.699Z,101402.45
2023-03-26T01:27:35.483Z,101401.05
2023-03-26T01:30:28.309Z,101399.63
2023-03-26T01:33:19.820Z,101400.38
2023-03-26T01:36:14.385Z,101400.23
2023-03-26T01:38:58.921Z,101395.61
2023-03-26T01:41:38.080Z,101397.40
2023-03-26T01:44:23.350Z,101396.54
2023-03-26T01:46:53.165Z,101397.80
2023-03-26T01:49:21.731Z,101389.77
2023-03-26T01:51:51.636Z,101383.15
2023-03-26T01:54:24.032Z,101378.30
2023-03-26T01:57:03.523Z,101379.31
2023-03-26T01:59:57.038Z,101374.28
2023-03-26T02:02:37.559Z,101372.13
2023-03-26T02:05:31.541Z,101361.63
2023-03-26T02:08:22.318Z,101357.17
2023-03-26T02:10:58.989Z,101350.92
2023-03-26T02:13:27.766Z,101349.48
2023-03-26T02:16:02.445Z,101349.34
2023-03-26T02:18:30.835Z,101348.65
2023-03-26T02:20:58.802Z,101342.62
2023-03-26T02:23:27.155Z,101339.79
2023-03-26T02:25:56.357Z,101341.42
2023-03-26T02:28:24.571Z,101335.91
2023-03-26T02:30:52.643Z,101334.86
2023-03-26T02:33:21.258Z,101329.88
2023-03-26T02:35:49.571Z,101322.92
2023-03-26T02:38:18.379Z,101321.14
2023-03-26T02:40:46.967Z,101316.69
2023-03-26T02:43:15.534Z,101311.16
2023-03-26T02:45:43.733Z,101308.33
2023-03-26T02:48:12.382Z,101313.15
2023-03-26T02:50:40.844Z,101312.98
2023-03-26T02:53:09.015Z,101318.91
2023-03-26T02:55:37.320Z,101311.23
2023-03-26T02:58:05.382Z,101308.55
2023-03-26T03:00:34.577Z,101308.23
2023-03-26T03:03:03.880Z,101303.23
2023-03-26T03:05:33.200Z,101305.92
2023-03-26T03:08:01.918Z,101300.23
2023-03-26T03:10:30.312Z,101301.33
2023-03-26T03:12:59.695Z,101297.39
2023-03-26T03:15:27.922Z,101295.96
2023-03-26T03:17:56.297Z,101292.92
2023-03-26T03:20:24.456Z,101294.91
2023-03-26T03:22:52.569Z,101284.90
2023-03-26T03:25:20.903Z,101291.52
2023-03-26T03:27:48.971Z,101284.71
2023-03-26T03:30:17.241Z,101281.33
2023-03-26T03:32:45.688Z,101279.17
2023-03-26T03:35:14.510Z,101280.08
2023-03-26T03:37:43.272Z,101282.77
2023-03-26T03:40:11.646Z,101274.17
2023-03-26T03:42:39.794Z,101269.36
2023-03-26T03:45:08.503Z,101267.39
2023-03-26T03:47:36.919Z,101265.95
2023-03-26T03:50:07.230Z,101275.61
2023-03-26T03:52:35.442Z,101271.68
2023-03-26T03:55:04.665Z,101270.06
2023-03-26T03:57:32.997Z,101270.06
2023-03-26T04:00:01.199Z,101273.83
2023-03-26T04:02:29.483Z,101271.49
2023-03-26T04:04:57.741Z,101265.06
2023-03-26T04:07:27.096Z,101266.14
2023-03-26T04:09:55.556Z,101267.03
2023-03-26T04:12:23.675Z,101273.82
2023-03-26T04:14:51.975Z,101269.35
2023-03-26T04:17:20.808Z,101269.02
2023-03-26T04:19:53.238Z,101267.93
2023-03-26T04:22:21.970Z,101265.61
2023-03-26T04:24:50.162Z,101260.77
2023-03-26T04:27:24.317Z,101256.67
2023-03-26T04:29:52.550Z,101257.92
2023-03-26T04:32:28.745Z,101251.64
2023-03-26T04:35:06.381Z,101251.66
2023-03-26T04:37:38.968Z,101254.69
2023-03-26T04:40:15.386Z,101256.48
2023-03-26T04:42:44.040Z,101266.13
2023-03-26T04:45:14.863Z,101270.08
2023-03-26T04:47:43.881Z,101267.02
2023-03-26T04:50:12.747Z,101272.39
2023-03-26T04:52:42.602Z,101275.09
2023-03-26T04:55:24.545Z,101281.33
2023-03-26T04:57:57.588Z,101284.91
2023-03-26T05:00:26.678Z,101283.66
2023-03-26T05:02:55.046Z,101279.36
2023-03-26T05:05:24.200Z,101281.33
2023-03-26T05:07:52.793Z,101282.23
2023-03-26T05:10:22.114Z,101280.79
2023-03-26T05:12:50.460Z,101281.52
2023-03-26T05:15:18.815Z,101282.22
2023-03-26T05:17:47.029Z,101285.98
2023-03-26T05:20:24.071Z,101282.04
2023-03-26T05:22:53.022Z,101287.40
2023-03-26T05:25:22.242Z,101293.27
2023-03-26T05:27:50.973Z,101297.23
2023-03-26T05:30:21.896Z,101291.86
2023-03-26T05:32:50.379Z,101294.17
2023-03-26T05:35:19.871Z,101295.43
2023-03-26T05:37:48.471Z,101296.69
2023-03-26T05:40:16.846Z,101295.09
2023-03-26T05:42:45.950Z,101299.02
2023-03-26T05:45:15.529Z,101300.27
2023-03-26T05:47:43.824Z,101296.70
2023-03-26T05:50:12.317Z,101299.20
2023-03-26T05:52:40.550Z,101309.39
2023-03-26T05:55:09.540Z,101301.34
2023-03-26T05:57:38.141Z,101307.61
2023-03-26T06:00:07.456Z,101310.83
2023-03-26T06:02:36.216Z,101307.97
2023-03-26T06:05:04.801Z,101312.09
2023-03-26T06:07:33.038Z,101310.64
2023-03-26T06:10:01.616Z,101302.95
2023-03-26T06:12:30.762Z,101304.77
2023-03-26T06:14:58.932Z,101302.42
2023-03-26T06:17:27.269Z,101307.96
2023-03-26T06:19:55.561Z,101309.17
2023-03-26T06:22:23.766Z,101310.48
2023-03-26T06:24:51.843Z,101309.17
2023-03-26T06:27:20.165Z,101311.48
2023-03-26T06:29:48.312Z,101309.70
2023-03-26T06:32:20.127Z,101312.80
2023-03-26T06:34:48.955Z,101312.53
2023-03-26T06:37:17.363Z,101317.13
2023-03-26T06:39:45.636Z,101318.39
2023-03-26T06:42:13.897Z,101322.52
2023-03-26T06:44:42.059Z,101319.86
2023-03-26T06:47:10.093Z,101318.27
2023-03-26T06:49:38.398Z,101320.48
2023-03-26T06:52:06.563Z,101314.25
2023-03-26T06:54:34.743Z,101311.68
2023-03-26T06:57:03.140Z,101321.61
2023-03-26T06:59:31.465Z,101320.27
2023-03-26T07:01:59.562Z,101325.23
2023-03-26T07:04:28.037Z,101326.92
2023-03-26T07:06:56.442Z,101323.96
2023-03-26T07:09:24.673Z,101320.88
2023-03-26T07:11:52.976Z,101315.33
2023-03-26T07:14:21.284Z,101316.14
2023-03-26T07:16:49.446Z,101318.27
2023-03-26T07:19:18.294Z,101319.69
2023-03-26T07:21:46.755Z,101321.14
2023-03-26T07:24:15.372Z,101321.14
2023-03-26T07:26:49.412Z,101317.11
2023-03-26T07:29:35.234Z,101309.71
2023-03-26T07:32:32.064Z,101315.41
2023-03-26T07:35:46.099Z,101318.15
2023-03-26T07:38:39.085Z,101322.30
2023-03-26T07:41:09.855Z,101322.48
2023-03-26T07:44:03.222Z,101313.00
2023-03-26T07:46:33.069Z,101317.58
2023-03-26T07:49:01.529Z,101323.50
2023-03-26T07:51:30.184Z,101322.73
2023-03-26T07:53:58.552Z,101319.46
2023-03-26T07:56:37.902Z,101313.84
2023-03-26T07:59:49.442Z,101319.19
2023-03-26T08:02:47.090Z,101316.27
2023-03-26T08:05:15.545Z,101312.64
2023-03-26T08:07:59.291Z,101304.70
2023-03-26T08:10:33.430Z,101311.82
2023-03-26T08:13:27.180Z,101320.60
2023-03-26T08:16:18.493Z,101323.14
2023-03-26T08:18:56.443Z,101321.33
2023-03-26T08:21:29.833Z,101321.52
2023-03-26T08:24:13.771Z,101322.59
2023-03-26T08:26:53.797Z,101326.88
2023-03-26T08:29:39.627Z,101325.70
2023-03-26T08:32:16.185Z,101332.45
2023-03-26T08:34:45.000Z,101326.48
2023-03-26T08:37:13.521Z,101333.86
2023-03-26T08:39:42.295Z,101331.92
2023-03-26T08:42:47.913Z,101338.73
2023-03-26T08:45:44.827Z,101334.35
2023-03-26T08:48:27.935Z,101334.46
2023-03-26T08:51:03.279Z,101337.48
2023-03-26T08:53:50.257Z,101339.28
2023-03-26T08:56:29.943Z,101340.31
2023-03-26T08:59:26.226Z,101338.40
2023-03-26T09:02:22.680Z,101336.30
2023-03-26T09:05:18.140Z,101344.38
2023-03-26T09:08:11.295Z,101335.10
2023-03-26T09:11:05.697Z,101340.39
2023-03-26T09:13:56.851Z,101342.87
2023-03-26T09:17:23.390Z,101345.46
2023-03-26T09:19:58.266Z,101349.08
2023-03-26T09:22:56.600Z,101346.14
2023-03-26T09:25:47.745Z,101345.73
2023-03-26T09:28:40.907Z,101343.55
2023-03-26T09:31:24.389Z,101342.52
2023-03-26T09:34:27.857Z,101345.52
2023-03-26T09:37:03.113Z,101337.96
2023-03-26T09:39:39.317Z,101334.60
2023-03-26T09:42:17.197Z,101333.77
2023-03-26T09:45:16.982Z,101335.08
2023-03-26T09:48:13.102Z,101332.30
2023-03-26T09:51:13.108Z,101329.65
2023-03-26T09:54:26.750Z,101324.95
2023-03-26T09:57:29.009Z,101320.65
2023-03-26T10:00:26.993Z,101323.02
2023-03-26T10:03:04.728Z,101323.64
2023-03-26T10:06:05.673Z,101325.73
2023-03-26T10:08:44.095Z,101321.70
2023-03-26T10:11:31.973Z,101323.11
2023-03-26T10:14:19.096Z,101323.39
2023-03-26T10:17:31.820Z,101315.48
2023-03-26T10:20:09.422Z,101312.96
2023-03-26T10:23:25.367Z,101312.30
2023-03-26T10:26:02.841Z,101319.82
2023-03-26T10:28:47.353Z,101319.57
2023-03-26T10:31:37.399Z,101310.55
2023-03-26T10:34:28.498Z,101311.20
2023-03-26T10:37:25.494Z,101309.01
2023-03-26T10:40:17.026Z,101312.70
2023-03-26T10:43:13.630Z,101307.33
2023-03-26T10:45:54.816Z,101307.38
2023-03-26T10:48:37.073Z,101302.52
2023-03-26T10:51:54.228Z,101299.18
2023-03-26T10:54:34.126Z,101293.88
2023-03-26T10:57:11.775Z,101287.30
2023-03-26T10:59:40.268Z,101279.53
2023-03-26T11:02:30.454Z,101266.46
2023-03-26T11:05:27.731Z,101273.76
2023-03-26T11:08:20.442Z,101269.27
2023-03-26T11:11:22.511Z,101266.98
2023-03-26T11:14:34.271Z,101267.56
2023-03-26T11:17:39.452Z,101263.06
2023-03-26T11:20:27.708Z,101256.52
2023-03-26T11:23:08.225Z,101256.66
2023-03-26T11:25:44.913Z,101253.80
2023-03-26T11:28:23.533Z,101249.95
2023-03-26T11:31:08.805Z,101248.77
2023-03-26T11:33:50.509Z,101245.85
2023-03-26T11:36:30.054Z,101242.36
2023-03-26T11:39:01.902Z,101235.92
2023-03-26T11:41:31.006Z,101228.92
2023-03-26T11:44:04.447Z,101226.31
2023-03-26T11:46:39.035Z,101228.92
2023-03-26T11:49:11.772Z,101221.25
2023-03-26T11:51:41.990Z,101224.12
2023-03-26T11:54:13.599Z,101213.16
2023-03-26T11:57:06.089Z,101217.00
2023-03-26T11:59:57.035Z,101209.81
2023-03-26T12:02:30.937Z,101210.08
2023-03-26T12:05:11.789Z,101208.36
2023-03-26T12:07:52.345Z,101208.21
2023-03-26T12:10:25.473Z,101209.61
2023-03-26T12:12:58.431Z,101204.10
2023-03-26T12:15:28.146Z,101200.80
2023-03-26T12:17:58.542Z,101194.83
2023-03-26T12:20:35.829Z,101197.23
2023-03-26T12:23:05.511Z,101203.52
2023-03-26T12:25:36.764Z,101187.06
2023-03-26T12:28:19.961Z,101186.50
2023-03-26T12:31:01.820Z,101182.82
2023-03-26T12:33:35.050Z,101180.15
2023-03-26T12:36:36.666Z,101171.81
2023-03-26T12:40:06.755Z,101171.40
2023-03-26T12:44:52.934Z,101168.64
2023-03-26T12:45:28.509Z,101162.88
2023-03-26T12:48:03.495Z,101168.84
2023-03-26T12:50:53.341Z,101164.62
2023-03-26T12:53:31.181Z,101154.52
2023-03-26T12:56:09.636Z,101148.60
2023-03-26T12:59:03.035Z,101145.88
2023-03-26T13:01:53.208Z,101135.15
2023-03-26T13:04:35.709Z,101146.35
2023-03-26T13:07:22.726Z,101137.97
2023-03-26T13:10:18.879Z,101123.91
2023-03-26T13:13:10.954Z,101127.38
2023-03-26T13:15:47.513Z,101122.77
2023-03-26T13:18:23.115Z,101130.57
2023-03-26T13:21:19.539Z,101119.17
2023-03-26T13:24:13.543Z,101114.64
2023-03-26T13:26:57.863Z,101094.98
2023-03-26T13:30:00.669Z,101098.38
2023-03-26T13:33:14.591Z,101091.39
2023-03-26T13:36:22.524Z,101091.05
2023-03-26T13:39:10.726Z,101078.54
2023-03-26T13:42:06.573Z,101081.34
2023-03-26T13:45:13.692Z,101075.38
2023-03-26T13:47:47.632Z,101078.54
2023-03-26T13:50:33.533Z,101073.25
2023-03-26T13:54:00.365Z,101072.42
2023-03-26T13:56:36.914Z,101067.63
2023-03-26T13:59:16.986Z,101060.91
2023-03-26T14:01:59.623Z,101066.68
2023-03-26T14:04:54.155Z,101053.65
2023-03-26T14:07:34.631Z,101054.62
2023-03-26T14:10:16.207Z,101059.70
2023-03-26T14:12:57.317Z,101066.29
2023-03-26T14:15:53.621Z,101056.00
2023-03-26T14:18:32.860Z,101032.70
2023-03-26T14:21:16.554Z,101040.56
2023-03-26T14:23:56.831Z,101047.91
2023-03-26T14:26:54.159Z,101059.57
2023-03-26T14:29:56.869Z,101049.40
2023-03-26T14:32:28.574Z,101041.23
2023-03-26T14:35:15.612Z,101034.63
2023-03-26T14:38:06.554Z,101037.85
2023-03-26T14:40:58.748Z,101031.79
2023-03-26T14:43:48.285Z,101022.04
2023-03-26T14:46:38.384Z,101025.73
2023-03-26T14:49:33.083Z,101030.89
2023-03-26T14:52:16.299Z,101035.63
2023-03-26T14:54:49.287Z,101032.55
2023-03-26T14:57:57.318Z,101024.31
2023-03-26T15:01:05.388Z,101019.23
2023-03-26T15:03:55.217Z,101008.66
2023-03-26T15:06:55.360Z,101019.33
2023-03-26T15:09:42.649Z,101020.48
2023-03-26T15:12:48.457Z,101017.73
2023-03-26T15:15:55.247Z,101002.55
2023-03-26T15:18:52.788Z,101004.59
2023-03-26T15:21:53.387Z,101004.58
2023-03-26T15:24:39.964Z,101003.52
2023-03-26T15:27:33.074Z,100996.69
2023-03-26T15:30:28.745Z,100995.26
2023-03-26T15:33:32.990Z,100988.20
2023-03-26T15:36:29.833Z,100996.59
2023-03-26T15:39:36.866Z,100990.27
2023-03-26T15:42:28.245Z,100994.95
2023-03-26T15:45:22.028Z,100987.98
2023-03-26T15:48:07.257Z,100966.52
2023-03-26T15:51:12.470Z,100981.38
2023-03-26T15:54:03.249Z,100981.70
2023-03-26T15:56:55.642Z,100979.96
2023-03-26T15:59:42.174Z,100974.98
2023-03-26T16:02:58.498Z,100970.44
2023-03-26T16:05:40.584Z,100972.49
2023-03-26T16:08:35.233Z,100959.13
2023-03-26T16:11:11.655Z,100964.27
2023-03-26T16:13:55.260Z,100963.77
2023-03-26T16:16:25.333Z,100958.45
2023-03-26T16:19:17.948Z,100957.21
2023-03-26T16:22:00.563Z,100971.81
2023-03-26T16:24:42.723Z,100956.83
2023-03-26T16:27:31.274Z,100966.77
2023-03-26T16:30:33.272Z,100964.14
2023-03-26T16:33:18.659Z,100967.27
2023-03-26T16:35:54.184Z,100970.23
2023-03-26T16:38:24.561Z,100967.83
2023-03-26T16:40:58.351Z,100965.91
2023-03-26T16:43:37.188Z,100965.45
2023-03-26T16:46:37.588Z,100955.96
2023-03-26T16:49:45.647Z,100952.36
2023-03-26T16:52:33.822Z,100962.32
2023-03-26T16:55:40.615Z,100959.02
2023-03-26T16:58:36.435Z,100960.36
2023-03-26T17:01:10.529Z,100962.98
2023-03-26T17:04:04.669Z,100973.17
2023-03-26T17:07:11.715Z,100970.76
2023-03-26T17:09:59.237Z,100975.70
2023-03-26T17:12:40.226Z,100973.77
2023-03-26T17:15:39.939Z,100977.80
2023-03-26T17:18:36.035Z,100988.23
2023-03-26T17:21:45.918Z,100993.54
2023-03-26T17:24:33.777Z,100986.81
2023-03-26T17:27:20.708Z,100979.00
2023-03-26T17:30:18.081Z,100984.03
2023-03-26T17:32:57.841Z,100989.14
2023-03-26T17:35:47.120Z,100992.72
2023-03-26T17:38:27.542Z,100991.29
2023-03-26T17:40:59.951Z,101000.65
2023-03-26T17:43:43.138Z,101008.36
2023-03-26T17:46:27.008Z,101008.55
2023-03-26T17:49:34.314Z,101011.98
2023-03-26T17:52:18.368Z,101016.61
2023-03-26T17:54:51.460Z,101015.50
2023-03-26T17:57:26.865Z,101024.25
2023-03-26T18:00:00.028Z,101025.16
2023-03-26T18:02:37.658Z,101025.35
2023-03-26T18:05:10.705Z,101030.36
2023-03-26T18:08:04.020Z,101027.81
2023-03-26T18:10:59.255Z,101029.41
2023-03-26T18:13:50.604Z,101029.40
2023-03-26T18:16:32.828Z,101035.84
2023-03-26T18:19:08.393Z,101039.77
2023-03-26T18:21:40.529Z,101044.99
2023-03-26T18:24:15.601Z,101048.23
2023-03-26T18:26:52.600Z,101047.17
2023-03-26T18:29:24.526Z,101049.51
2023-03-26T18:32:23.206Z,101055.61
2023-03-26T18:34:58.627Z,101062.25
2023-03-26T18:37:35.046Z,101063.52
2023-03-26T18:40:19.304Z,101066.75
2023-03-26T18:42:58.054Z,101074.45
2023-03-26T18:45:51.073Z,101076.58
2023-03-26T18:48:23.092Z,101079.98
2023-03-26T18:51:00.191Z,101083.37
2023-03-26T18:53:51.149Z,101086.73
2023-03-26T18:56:40.550Z,101096.38
2023-03-26T18:59:27.294Z,101107.48
2023-03-26T19:01:58.034Z,101106.26
2023-03-26T19:04:31.026Z,101115.94
2023-03-26T19:07:01.180Z,101117.94
2023-03-26T19:09:33.166Z,101124.61
2023-03-26T19:12:11.237Z,101128.24
2023-03-26T19:15:04.116Z,101133.29
2023-03-26T19:17:40.058Z,101133.16
2023-03-26T19:20:19.146Z,101141.98
2023-03-26T19:22:48.877Z,101147.02
2023-03-26T19:25:24.384Z,101148.44
2023-03-26T19:27:54.727Z,101151.79
2023-03-26T19:30:33.083Z,101149.31
2023-03-26T19:33:12.899Z,101156.55
2023-03-26T19:35:44.284Z,101156.56
2023-03-26T19:38:37.800Z,101159.71
2023-03-26T19:41:07.107Z,101161.82
2023-03-26T19:43:35.281Z,101162.02
2023-03-26T19:46:03.718Z,101168.14
2023-03-26T19:48:45.881Z,101172.71
2023-03-26T19:51:24.794Z,101180.95
2023-03-26T19:53:55.627Z,101184.72
2023-03-26T19:56:24.248Z,101181.99
2023-03-26T19:58:52.817Z,101182.00
2023-03-26T20:01:26.079Z,101183.33
2023-03-26T20:03:58.251Z,101191.09
2023-03-26T20:06:41.457Z,101200.15
2023-03-26T20:09:13.139Z,101202.89
2023-03-26T20:11:42.262Z,101207.35
2023-03-26T20:14:17.788Z,101206.24
2023-03-26T20:16:46.881Z,101208.70
2023-03-26T20:19:15.655Z,101208.70
2023-03-26T20:21:45.194Z,101210.34
2023-03-26T20:24:18.800Z,101214.95
2023-03-26T20:26:48.032Z,101216.92
2023-03-26T20:29:17.345Z,101216.20
2023-03-26T20:31:47.171Z,101220.69
2023-03-26T20:34:22.803Z,101223.73
2023-03-26T20:36:52.065Z,101222.06
2023-03-26T20:39:25.784Z,101230.02
2023-03-26T20:41:55.182Z,101231.47
2023-03-26T20:44:24.285Z,101239.61
2023-03-26T20:46:54.915Z,101241.45
2023-03-26T20:49:23.208Z,101245.48
2023-03-26T20:51:52.233Z,101249.13
2023-03-26T20:54:23.968Z,101253.67
2023-03-26T20:56:53.746Z,101263.63
2023-03-26T20:59:27.342Z,101264.94
2023-03-26T21:01:57.985Z,101265.70
2023-03-26T21:04:27.377Z,101268.79
2023-03-26T21:07:07.025Z,101270.27
2023-03-26T21:09:40.261Z,101271.41
2023-03-26T21:12:21.208Z,101278.42
2023-03-26T21:14:49.766Z,101283.47
2023-03-26T21:17:21.104Z,101287.30
2023-03-26T21:19:50.153Z,101290.63
2023-03-26T21:22:39.910Z,101293.98
2023-03-26T21:25:21.726Z,101296.59
2023-03-26T21:28:15.074Z,101295.98
2023-03-26T21:30:43.673Z,101296.48
2023-03-26T21:33:11.861Z,101301.60
2023-03-26T21:35:40.886Z,101304.00
2023-03-26T21:38:11.089Z,101302.86
2023-03-26T21:40:44.485Z,101311.20
2023-03-26T21:43:16.428Z,101303.58
2023-03-26T21:45:46.196Z,101299.38
2023-03-26T21:48:16.056Z,101303.96
2023-03-26T21:50:45.036Z,101304.40
2023-03-26T21:53:15.006Z,101296.02
2023-03-26T21:55:52.760Z,101306.33
2023-03-26T21:58:27.419Z,101313.04
2023-03-26T22:01:42.111Z,101308.98
2023-03-26T22:05:07.869Z,101314.64
2023-03-26T22:07:51.511Z,101312.92
2023-03-26T22:10:20.056Z,101316.40
2023-03-26T22:12:48.515Z,101327.05
2023-03-26T22:15:17.938Z,101328.34
2023-03-26T22:17:46.902Z,101338.08
2023-03-26T22:20:15.314Z,101327.55
2023-03-26T22:22:43.752Z,101331.91
2023-03-26T22:25:11.905Z,101336.61
2023-03-26T22:27:43.845Z,101333.56
2023-03-26T22:30:14.664Z,101333.36
2023-03-26T22:32:44.062Z,101334.62
2023-03-26T22:35:12.960Z,101338.05
2023-03-26T22:37:42.018Z,101340.59
2023-03-26T22:40:11.941Z,101342.07
2023-03-26T22:42:41.298Z,101339.77
2023-03-26T22:45:11.460Z,101337.42
2023-03-26T22:47:40.069Z,101341.44
2023-03-26T22:50:09.395Z,101342.89
2023-03-26T22:52:38.860Z,101342.35
2023-03-26T22:55:08.181Z,101345.92
2023-03-26T22:57:36.696Z,101351.31
2023-03-26T23:00:08.891Z,101357.08
2023-03-26T23:02:37.194Z,101361.23
2023-03-26T23:05:05.735Z,101368.10
2023-03-26T23:07:34.009Z,101371.19
2023-03-26T23:10:02.680Z,101373.20
2023-03-26T23:12:30.934Z,101373.77
2023-03-26T23:14:59.821Z,101374.30
2023-03-26T23:17:27.991Z,101370.91
2023-03-26T23:19:56.712Z,101371.10
2023-03-26T23:22:25.311Z,101369.29
2023-03-26T23:24:53.480Z,101362.66
2023-03-26T23:27:22.634Z,101360.52
2023-03-26T23:29:51.227Z,101359.80
2023-03-26T23:32:24.746Z,101358.73
2023-03-26T23:34:53.523Z,101357.14
2023-03-26T23:37:23.186Z,101358.43
2023-03-26T23:39:53.306Z,101364.91
2023-03-26T23:42:28.494Z,101366.04
2023-03-26T23:44:58.369Z,101366.77
2023-03-26T23:47:27.070Z,101366.05
2023-03-26T23:49:55.222Z,101364.62
2023-03-26T23:52:23.520Z,101367.13
2023-03-26T23:54:51.675Z,101364.45
2023-03-26T23:57:20.347Z,101363.05
2023-03-26T23:59:49.386Z,101364.31
